sensor_id;sensor_type;location;lat;lon;timestamp;temperature;humidity
9118;DHT22;4594;50.994;7.126;2022-09-23T00:00:59;13.20;32.20
9118;DHT22;4594;50.994;7.126;2022-09-23T00:03:28;13.20;32.40
9118;DHT22;4594;50.994;7.126;2022-09-23T00:06:03;13.10;32.30
9118;DHT22;4594;50.994;7.126;2022-09-23T00:08:31;13.10;32.30
9118;DHT22;4594;50.994;7.126;2022-09-23T00:11:06;13.10;32.30
9118;DHT22;4594;50.994;7.126;2022-09-23T00:13:38;13.00;32.30
9118;DHT22;4594;50.994;7.126;2022-09-23T00:16:08;13.10;32.30
9118;DHT22;4594;50.994;7.126;2022-09-23T00:18:35;13.00;32.30
9118;DHT22;4594;50.994;7.126;2022-09-23T00:21:12;13.10;32.30
9118;DHT22;4594;50.994;7.126;2022-09-23T00:23:39;13.10;32.40
9118;DHT22;4594;50.994;7.126;2022-09-23T00:26:08;13.10;32.40
9118;DHT22;4594;50.994;7.126;2022-09-23T00:28:36;13.10;32.50
9118;DHT22;4594;50.994;7.126;2022-09-23T00:33:28;13.10;32.50
9118;DHT22;4594;50.994;7.126;2022-09-23T00:36:01;13.20;32.60
9118;DHT22;4594;50.994;7.126;2022-09-23T00:38:28;13.20;32.60
9118;DHT22;4594;50.994;7.126;2022-09-23T00:40:54;13.60;32.90
9118;DHT22;4594;50.994;7.126;2022-09-23T00:43:45;13.20;32.60
9118;DHT22;4594;50.994;7.126;2022-09-23T00:49:11;13.30;32.70
9118;DHT22;4594;50.994;7.126;2022-09-23T00:51:44;13.30;32.60
9118;DHT22;4594;50.994;7.126;2022-09-23T00:54:16;13.30;32.60
9118;DHT22;4594;50.994;7.126;2022-09-23T00:56:43;13.40;32.60
9118;DHT22;4594;50.994;7.126;2022-09-23T00:59:09;13.40;32.60
9118;DHT22;4594;50.994;7.126;2022-09-23T01:01:36;13.40;32.60
9118;DHT22;4594;50.994;7.126;2022-09-23T01:04:03;13.40;32.60
9118;DHT22;4594;50.994;7.126;2022-09-23T01:06:29;13.40;32.60
9118;DHT22;4594;50.994;7.126;2022-09-23T01:08:55;13.40;32.60
9118;DHT22;4594;50.994;7.126;2022-09-23T01:22:41;13.50;32.60
9118;DHT22;4594;50.994;7.126;2022-09-23T01:31:51;13.50;32.60
9118;DHT22;4594;50.994;7.126;2022-09-23T01:40:10;13.50;32.60
9118;DHT22;4594;50.994;7.126;2022-09-23T01:43:07;13.50;32.60
9118;DHT22;4594;50.994;7.126;2022-09-23T01:45:41;13.60;32.70
9118;DHT22;4594;50.994;7.126;2022-09-23T01:48:17;13.50;32.60
9118;DHT22;4594;50.994;7.126;2022-09-23T01:51:01;13.50;32.60
9118;DHT22;4594;50.994;7.126;2022-09-23T01:53:36;13.60;32.70
9118;DHT22;4594;50.994;7.126;2022-09-23T01:56:22;13.50;32.60
9118;DHT22;4594;50.994;7.126;2022-09-23T01:59:01;13.50;32.60
9118;DHT22;4594;50.994;7.126;2022-09-23T02:02:34;13.50;32.60
9118;DHT22;4594;50.994;7.126;2022-09-23T02:04:46;13.50;32.60
9118;DHT22;4594;50.994;7.126;2022-09-23T02:07:45;13.50;32.60
9118;DHT22;4594;50.994;7.126;2022-09-23T02:10:43;13.40;32.60
9118;DHT22;4594;50.994;7.126;2022-09-23T02:13:20;13.50;32.70
9118;DHT22;4594;50.994;7.126;2022-09-23T02:15:56;13.40;32.60
9118;DHT22;4594;50.994;7.126;2022-09-23T02:18:29;13.40;32.60
9118;DHT22;4594;50.994;7.126;2022-09-23T02:21:04;13.40;32.60
9118;DHT22;4594;50.994;7.126;2022-09-23T02:23:42;13.30;32.60
9118;DHT22;4594;50.994;7.126;2022-09-23T02:26:27;13.30;32.60
9118;DHT22;4594;50.994;7.126;2022-09-23T02:38:47;13.20;32.60
9118;DHT22;4594;50.994;7.126;2022-09-23T02:44:05;13.10;32.70
9118;DHT22;4594;50.994;7.126;2022-09-23T02:46:38;13.10;32.70
9118;DHT22;4594;50.994;7.126;2022-09-23T02:49:15;13.00;32.60
9118;DHT22;4594;50.994;7.126;2022-09-23T02:51:55;13.00;32.70
9118;DHT22;4594;50.994;7.126;2022-09-23T02:54:27;12.90;32.60
9118;DHT22;4594;50.994;7.126;2022-09-23T02:56:53;12.90;32.60
9118;DHT22;4594;50.994;7.126;2022-09-23T02:59:21;12.90;32.70
9118;DHT22;4594;50.994;7.126;2022-09-23T03:02:02;12.80;32.60
9118;DHT22;4594;50.994;7.126;2022-09-23T03:05:23;12.80;32.60
9118;DHT22;4594;50.994;7.126;2022-09-23T03:11:11;12.80;32.70
9118;DHT22;4594;50.994;7.126;2022-09-23T03:17:09;12.70;32.70
9118;DHT22;4594;50.994;7.126;2022-09-23T03:19:54;12.60;32.70
9118;DHT22;4594;50.994;7.126;2022-09-23T03:22:41;12.60;32.70
9118;DHT22;4594;50.994;7.126;2022-09-23T03:25:14;12.60;32.70
9118;DHT22;4594;50.994;7.126;2022-09-23T03:27:44;12.60;32.70
9118;DHT22;4594;50.994;7.126;2022-09-23T03:30:10;12.50;32.60
9118;DHT22;4594;50.994;7.126;2022-09-23T03:32:40;12.50;32.60
9118;DHT22;4594;50.994;7.126;2022-09-23T03:35:11;12.50;32.70
9118;DHT22;4594;50.994;7.126;2022-09-23T03:37:56;12.50;32.80
9118;DHT22;4594;50.994;7.126;2022-09-23T03:40:39;12.50;32.80
9118;DHT22;4594;50.994;7.126;2022-09-23T03:43:09;12.50;32.80
9118;DHT22;4594;50.994;7.126;2022-09-23T03:45:38;12.40;32.70
9118;DHT22;4594;50.994;7.126;2022-09-23T03:48:06;12.50;32.90
9118;DHT22;4594;50.994;7.126;2022-09-23T03:50:33;12.40;32.80
9118;DHT22;4594;50.994;7.126;2022-09-23T03:53:00;12.40;32.80
9118;DHT22;4594;50.994;7.126;2022-09-23T03:55:26;12.40;32.80
9118;DHT22;4594;50.994;7.126;2022-09-23T03:57:52;12.40;32.90
9118;DHT22;4594;50.994;7.126;2022-09-23T04:00:18;12.40;32.90
9118;DHT22;4594;50.994;7.126;2022-09-23T04:02:44;12.40;32.90
9118;DHT22;4594;50.994;7.126;2022-09-23T04:05:11;12.40;32.90
9118;DHT22;4594;50.994;7.126;2022-09-23T04:07:37;12.30;32.90
9118;DHT22;4594;50.994;7.126;2022-09-23T04:10:04;12.40;33.00
9118;DHT22;4594;50.994;7.126;2022-09-23T04:12:30;12.40;33.00
9118;DHT22;4594;50.994;7.126;2022-09-23T04:14:56;12.40;33.00
9118;DHT22;4594;50.994;7.126;2022-09-23T04:17:21;12.40;33.00
9118;DHT22;4594;50.994;7.126;2022-09-23T04:19:47;12.40;33.00
9118;DHT22;4594;50.994;7.126;2022-09-23T04:22:13;12.40;33.00
9118;DHT22;4594;50.994;7.126;2022-09-23T04:24:38;12.30;33.00
9118;DHT22;4594;50.994;7.126;2022-09-23T04:27:04;12.30;33.00
9118;DHT22;4594;50.994;7.126;2022-09-23T04:29:30;12.30;33.00
9118;DHT22;4594;50.994;7.126;2022-09-23T04:31:56;12.30;33.00
9118;DHT22;4594;50.994;7.126;2022-09-23T04:34:22;12.20;33.00
9118;DHT22;4594;50.994;7.126;2022-09-23T04:36:48;12.20;33.00
9118;DHT22;4594;50.994;7.126;2022-09-23T04:39:15;12.20;33.00
9118;DHT22;4594;50.994;7.126;2022-09-23T04:41:43;12.20;33.10
9118;DHT22;4594;50.994;7.126;2022-09-23T04:44:13;12.10;33.00
9118;DHT22;4594;50.994;7.126;2022-09-23T04:46:40;12.10;33.10
9118;DHT22;4594;50.994;7.126;2022-09-23T04:49:08;12.10;33.10
9118;DHT22;4594;50.994;7.126;2022-09-23T04:51:34;12.00;33.00
9118;DHT22;4594;50.994;7.126;2022-09-23T04:54:00;12.00;33.00
9118;DHT22;4594;50.994;7.126;2022-09-23T04:56:28;12.00;33.00
9118;DHT22;4594;50.994;7.126;2022-09-23T04:58:57;12.00;33.00
9118;DHT22;4594;50.994;7.126;2022-09-23T05:01:27;11.90;33.00
9118;DHT22;4594;50.994;7.126;2022-09-23T05:03:58;11.90;33.10
9118;DHT22;4594;50.994;7.126;2022-09-23T05:06:27;11.90;33.10
9118;DHT22;4594;50.994;7.126;2022-09-23T05:08:57;11.90;33.10
9118;DHT22;4594;50.994;7.126;2022-09-23T05:11:24;11.90;33.20
9118;DHT22;4594;50.994;7.126;2022-09-23T05:13:52;11.90;33.20
9118;DHT22;4594;50.994;7.126;2022-09-23T05:16:19;11.90;33.20
9118;DHT22;4594;50.994;7.126;2022-09-23T05:18:48;11.90;33.20
9118;DHT22;4594;50.994;7.126;2022-09-23T05:21:20;11.90;33.20
9118;DHT22;4594;50.994;7.126;2022-09-23T05:23:52;11.90;33.30
9118;DHT22;4594;50.994;7.126;2022-09-23T05:26:20;11.90;33.30
9118;DHT22;4594;50.994;7.126;2022-09-23T05:28:47;11.90;33.20
9118;DHT22;4594;50.994;7.126;2022-09-23T05:31:18;11.90;33.20
9118;DHT22;4594;50.994;7.126;2022-09-23T05:33:48;11.90;33.30
9118;DHT22;4594;50.994;7.126;2022-09-23T05:36:20;11.90;33.30
9118;DHT22;4594;50.994;7.126;2022-09-23T05:38:47;11.90;33.30
9118;DHT22;4594;50.994;7.126;2022-09-23T05:41:14;11.90;33.30
9118;DHT22;4594;50.994;7.126;2022-09-23T05:43:40;11.90;33.30
9118;DHT22;4594;50.994;7.126;2022-09-23T05:46:13;12.00;33.50
9118;DHT22;4594;50.994;7.126;2022-09-23T05:48:41;12.00;33.50
9118;DHT22;4594;50.994;7.126;2022-09-23T05:51:09;12.00;33.50
9118;DHT22;4594;50.994;7.126;2022-09-23T05:53:39;12.00;33.50
9118;DHT22;4594;50.994;7.126;2022-09-23T05:56:10;12.10;33.50
9118;DHT22;4594;50.994;7.126;2022-09-23T05:58:37;12.10;33.60
9118;DHT22;4594;50.994;7.126;2022-09-23T06:01:16;12.20;33.60
9118;DHT22;4594;50.994;7.126;2022-09-23T06:03:46;12.20;33.60
9118;DHT22;4594;50.994;7.126;2022-09-23T06:06:13;12.30;33.70
9118;DHT22;4594;50.994;7.126;2022-09-23T06:08:45;12.30;33.70
9118;DHT22;4594;50.994;7.126;2022-09-23T06:11:12;12.40;33.80
9118;DHT22;4594;50.994;7.126;2022-09-23T06:13:39;12.40;33.80
9118;DHT22;4594;50.994;7.126;2022-09-23T06:16:10;12.50;33.90
9118;DHT22;4594;50.994;7.126;2022-09-23T06:18:39;12.60;33.90
9118;DHT22;4594;50.994;7.126;2022-09-23T06:21:07;12.70;34.10
9118;DHT22;4594;50.994;7.126;2022-09-23T06:23:36;12.80;34.20
9118;DHT22;4594;50.994;7.126;2022-09-23T06:26:06;13.00;34.40
9118;DHT22;4594;50.994;7.126;2022-09-23T06:28:37;13.20;34.50
9118;DHT22;4594;50.994;7.126;2022-09-23T06:31:07;13.40;34.60
9118;DHT22;4594;50.994;7.126;2022-09-23T06:33:38;13.70;34.80
9118;DHT22;4594;50.994;7.126;2022-09-23T06:36:06;13.90;34.90
9118;DHT22;4594;50.994;7.126;2022-09-23T06:38:33;14.10;35.00
9118;DHT22;4594;50.994;7.126;2022-09-23T06:41:02;14.40;35.40
9118;DHT22;4594;50.994;7.126;2022-09-23T06:43:29;14.70;35.30
9118;DHT22;4594;50.994;7.126;2022-09-23T06:45:57;15.00;35.40
9118;DHT22;4594;50.994;7.126;2022-09-23T06:48:25;15.30;35.50
9118;DHT22;4594;50.994;7.126;2022-09-23T06:50:52;15.50;35.50
9118;DHT22;4594;50.994;7.126;2022-09-23T06:53:20;15.80;35.50
9118;DHT22;4594;50.994;7.126;2022-09-23T06:56:00;16.10;35.50
9118;DHT22;4594;50.994;7.126;2022-09-23T06:58:29;16.40;35.30
9118;DHT22;4594;50.994;7.126;2022-09-23T07:01:03;16.60;35.50
9118;DHT22;4594;50.994;7.126;2022-09-23T07:03:32;16.80;35.30
9118;DHT22;4594;50.994;7.126;2022-09-23T07:05:58;17.10;35.60
9118;DHT22;4594;50.994;7.126;2022-09-23T07:08:27;17.30;35.60
9118;DHT22;4594;50.994;7.126;2022-09-23T07:10:56;17.60;35.70
9118;DHT22;4594;50.994;7.126;2022-09-23T07:13:23;17.90;35.80
9118;DHT22;4594;50.994;7.126;2022-09-23T07:15:53;18.20;35.90
9118;DHT22;4594;50.994;7.126;2022-09-23T07:18:23;18.50;35.80
9118;DHT22;4594;50.994;7.126;2022-09-23T07:20:51;18.80;36.30
9118;DHT22;4594;50.994;7.126;2022-09-23T07:23:17;19.20;36.60
9118;DHT22;4594;50.994;7.126;2022-09-23T07:25:44;19.40;36.70
9118;DHT22;4594;50.994;7.126;2022-09-23T07:28:16;19.90;36.70
9118;DHT22;4594;50.994;7.126;2022-09-23T07:30:44;20.30;36.60
9118;DHT22;4594;50.994;7.126;2022-09-23T07:33:10;20.70;36.70
9118;DHT22;4594;50.994;7.126;2022-09-23T07:35:40;21.10;36.80
9118;DHT22;4594;50.994;7.126;2022-09-23T07:38:08;21.50;36.80
9118;DHT22;4594;50.994;7.126;2022-09-23T07:40:34;22.00;37.30
9118;DHT22;4594;50.994;7.126;2022-09-23T07:43:00;22.40;37.40
9118;DHT22;4594;50.994;7.126;2022-09-23T07:45:28;22.90;37.50
9118;DHT22;4594;50.994;7.126;2022-09-23T07:47:56;23.50;37.50
9118;DHT22;4594;50.994;7.126;2022-09-23T07:50:22;24.00;37.60
9118;DHT22;4594;50.994;7.126;2022-09-23T07:52:48;24.50;37.50
9118;DHT22;4594;50.994;7.126;2022-09-23T07:55:17;25.00;37.40
9118;DHT22;4594;50.994;7.126;2022-09-23T07:57:44;25.50;37.20
9118;DHT22;4594;50.994;7.126;2022-09-23T08:00:11;25.90;36.80
9118;DHT22;4594;50.994;7.126;2022-09-23T08:02:41;26.20;36.30
9118;DHT22;4594;50.994;7.126;2022-09-23T08:05:07;26.40;35.90
9118;DHT22;4594;50.994;7.126;2022-09-23T08:07:33;26.60;35.70
9118;DHT22;4594;50.994;7.126;2022-09-23T08:10:00;26.70;35.40
9118;DHT22;4594;50.994;7.126;2022-09-23T08:12:27;26.80;35.00
9118;DHT22;4594;50.994;7.126;2022-09-23T08:14:55;26.80;34.60
9118;DHT22;4594;50.994;7.126;2022-09-23T08:17:20;26.80;34.40
9118;DHT22;4594;50.994;7.126;2022-09-23T08:19:46;26.80;34.30
9118;DHT22;4594;50.994;7.126;2022-09-23T08:22:12;26.70;34.20
9118;DHT22;4594;50.994;7.126;2022-09-23T08:24:38;26.60;33.90
9118;DHT22;4594;50.994;7.126;2022-09-23T08:27:03;26.50;33.90
9118;DHT22;4594;50.994;7.126;2022-09-23T08:29:29;26.40;33.60
9118;DHT22;4594;50.994;7.126;2022-09-23T08:31:55;26.20;33.40
9118;DHT22;4594;50.994;7.126;2022-09-23T08:34:21;26.00;33.20
9118;DHT22;4594;50.994;7.126;2022-09-23T08:36:48;25.70;33.00
9118;DHT22;4594;50.994;7.126;2022-09-23T08:39:16;25.40;32.90
9118;DHT22;4594;50.994;7.126;2022-09-23T08:41:54;25.10;32.80
9118;DHT22;4594;50.994;7.126;2022-09-23T08:44:50;24.90;32.70
9118;DHT22;4594;50.994;7.126;2022-09-23T08:47:31;24.60;32.70
9118;DHT22;4594;50.994;7.126;2022-09-23T08:52:47;24.00;32.50
9118;DHT22;4594;50.994;7.126;2022-09-23T08:55:15;23.80;32.70
9118;DHT22;4594;50.994;7.126;2022-09-23T09:00:36;23.40;32.20
9118;DHT22;4594;50.994;7.126;2022-09-23T09:06:41;23.10;32.20
9118;DHT22;4594;50.994;7.126;2022-09-23T09:09:31;23.00;32.60
9118;DHT22;4594;50.994;7.126;2022-09-23T09:12:25;23.00;33.00
9118;DHT22;4594;50.994;7.126;2022-09-23T09:15:06;23.00;32.70
9118;DHT22;4594;50.994;7.126;2022-09-23T09:17:59;23.20;33.40
9118;DHT22;4594;50.994;7.126;2022-09-23T09:20:56;23.30;33.30
9118;DHT22;4594;50.994;7.126;2022-09-23T09:26:18;23.60;33.30
9118;DHT22;4594;50.994;7.126;2022-09-23T09:29:01;23.80;33.60
9118;DHT22;4594;50.994;7.126;2022-09-23T09:31:45;23.80;33.30
9118;DHT22;4594;50.994;7.126;2022-09-23T09:39:40;24.10;33.90
9118;DHT22;4594;50.994;7.126;2022-09-23T09:42:06;24.20;33.90
9118;DHT22;4594;50.994;7.126;2022-09-23T09:44:42;24.30;33.90
9118;DHT22;4594;50.994;7.126;2022-09-23T09:47:35;24.40;33.50
9118;DHT22;4594;50.994;7.126;2022-09-23T09:50:11;24.50;33.50
9118;DHT22;4594;50.994;7.126;2022-09-23T09:52:46;24.70;34.00
9118;DHT22;4594;50.994;7.126;2022-09-23T10:02:56;25.60;34.30
9118;DHT22;4594;50.994;7.126;2022-09-23T10:05:34;25.90;34.60
9118;DHT22;4594;50.994;7.126;2022-09-23T10:08:27;26.40;35.20
9118;DHT22;4594;50.994;7.126;2022-09-23T10:11:03;26.90;34.50
9118;DHT22;4594;50.994;7.126;2022-09-23T10:13:30;27.30;34.80
9118;DHT22;4594;50.994;7.126;2022-09-23T10:15:58;27.60;34.80
9118;DHT22;4594;50.994;7.126;2022-09-23T10:18:30;27.90;34.50
9118;DHT22;4594;50.994;7.126;2022-09-23T10:21:15;28.10;34.20
9118;DHT22;4594;50.994;7.126;2022-09-23T10:23:47;28.30;33.40
9118;DHT22;4594;50.994;7.126;2022-09-23T10:26:27;28.30;33.80
9118;DHT22;4594;50.994;7.126;2022-09-23T10:29:01;28.40;33.20
9118;DHT22;4594;50.994;7.126;2022-09-23T10:31:45;28.50;33.50
9118;DHT22;4594;50.994;7.126;2022-09-23T10:34:26;28.60;33.70
9118;DHT22;4594;50.994;7.126;2022-09-23T10:37:01;28.60;32.80
9118;DHT22;4594;50.994;7.126;2022-09-23T10:39:32;28.70;32.80
9118;DHT22;4594;50.994;7.126;2022-09-23T10:42:18;28.70;33.00
9118;DHT22;4594;50.994;7.126;2022-09-23T10:45:25;28.70;32.90
9118;DHT22;4594;50.994;7.126;2022-09-23T10:51:04;28.50;32.10
9118;DHT22;4594;50.994;7.126;2022-09-23T10:56:35;28.20;32.10
9118;DHT22;4594;50.994;7.126;2022-09-23T11:00:39;28.00;31.80
9118;DHT22;4594;50.994;7.126;2022-09-23T11:05:49;27.50;32.10
9118;DHT22;4594;50.994;7.126;2022-09-23T11:11:30;27.30;32.00
9118;DHT22;4594;50.994;7.126;2022-09-23T11:26:02;26.70;31.40
9118;DHT22;4594;50.994;7.126;2022-09-23T11:31:52;26.40;30.20
9118;DHT22;4594;50.994;7.126;2022-09-23T11:37:19;26.00;31.00
9118;DHT22;4594;50.994;7.126;2022-09-23T11:40:12;25.80;31.20
9118;DHT22;4594;50.994;7.126;2022-09-23T11:43:19;25.70;31.10
9118;DHT22;4594;50.994;7.126;2022-09-23T11:46:37;25.50;31.20
9118;DHT22;4594;50.994;7.126;2022-09-23T11:57:50;25.00;31.20
9118;DHT22;4594;50.994;7.126;2022-09-23T12:00:21;24.90;31.30
9118;DHT22;4594;50.994;7.126;2022-09-23T12:06:03;24.70;31.10
9118;DHT22;4594;50.994;7.126;2022-09-23T12:08:34;24.60;31.40
9118;DHT22;4594;50.994;7.126;2022-09-23T12:20:12;24.30;31.30
9118;DHT22;4594;50.994;7.126;2022-09-23T12:23:10;24.30;31.00
9118;DHT22;4594;50.994;7.126;2022-09-23T12:26:11;24.30;31.40
9118;DHT22;4594;50.994;7.126;2022-09-23T12:28:44;24.30;31.50
9118;DHT22;4594;50.994;7.126;2022-09-23T12:31:14;24.20;31.30
9118;DHT22;4594;50.994;7.126;2022-09-23T12:33:49;24.20;31.30
9118;DHT22;4594;50.994;7.126;2022-09-23T12:36:25;24.20;31.00
9118;DHT22;4594;50.994;7.126;2022-09-23T12:41:45;24.20;31.00
9118;DHT22;4594;50.994;7.126;2022-09-23T12:49:47;24.00;30.90
9118;DHT22;4594;50.994;7.126;2022-09-23T12:54:42;23.90;31.00
9118;DHT22;4594;50.994;7.126;2022-09-23T13:02:38;23.70;30.70
9118;DHT22;4594;50.994;7.126;2022-09-23T13:05:24;23.70;30.80
9118;DHT22;4594;50.994;7.126;2022-09-23T13:08:16;23.70;30.70
9118;DHT22;4594;50.994;7.126;2022-09-23T13:10:51;23.70;30.80
9118;DHT22;4594;50.994;7.126;2022-09-23T13:13:25;23.60;30.80
9118;DHT22;4594;50.994;7.126;2022-09-23T13:16:33;23.60;30.70
9118;DHT22;4594;50.994;7.126;2022-09-23T13:27:35;23.60;30.80
9118;DHT22;4594;50.994;7.126;2022-09-23T13:29:59;23.50;30.90
9118;DHT22;4594;50.994;7.126;2022-09-23T13:33:01;23.50;30.70
9118;DHT22;4594;50.994;7.126;2022-09-23T13:35:37;23.40;30.30
9118;DHT22;4594;50.994;7.126;2022-09-23T13:38:26;23.30;30.40
9118;DHT22;4594;50.994;7.126;2022-09-23T13:41:06;23.30;30.30
9118;DHT22;4594;50.994;7.126;2022-09-23T13:43:46;23.20;30.50
9118;DHT22;4594;50.994;7.126;2022-09-23T13:46:26;23.10;30.50
9118;DHT22;4594;50.994;7.126;2022-09-23T13:48:54;23.00;30.70
9118;DHT22;4594;50.994;7.126;2022-09-23T13:51:26;23.00;30.70
9118;DHT22;4594;50.994;7.126;2022-09-23T13:53:57;22.90;30.70
9118;DHT22;4594;50.994;7.126;2022-09-23T13:56:26;22.90;30.70
9118;DHT22;4594;50.994;7.126;2022-09-23T13:58:54;22.90;30.70
9118;DHT22;4594;50.994;7.126;2022-09-23T14:01:40;22.80;30.80
9118;DHT22;4594;50.994;7.126;2022-09-23T14:04:22;22.80;30.90
9118;DHT22;4594;50.994;7.126;2022-09-23T14:06:49;22.80;30.90
9118;DHT22;4594;50.994;7.126;2022-09-23T14:09:23;22.80;30.90
9118;DHT22;4594;50.994;7.126;2022-09-23T14:11:52;22.90;30.70
9118;DHT22;4594;50.994;7.126;2022-09-23T14:14:20;22.80;30.90
9118;DHT22;4594;50.994;7.126;2022-09-23T14:16:48;22.80;31.10
9118;DHT22;4594;50.994;7.126;2022-09-23T14:19:17;22.80;31.10
9118;DHT22;4594;50.994;7.126;2022-09-23T14:21:51;22.80;31.10
9118;DHT22;4594;50.994;7.126;2022-09-23T14:26:51;22.70;31.00
9118;DHT22;4594;50.994;7.126;2022-09-23T14:29:23;22.70;31.10
9118;DHT22;4594;50.994;7.126;2022-09-23T14:32:02;22.70;31.20
9118;DHT22;4594;50.994;7.126;2022-09-23T14:37:41;22.70;30.80
9118;DHT22;4594;50.994;7.126;2022-09-23T14:40:33;22.60;31.20
9118;DHT22;4594;50.994;7.126;2022-09-23T14:43:25;22.60;31.10
9118;DHT22;4594;50.994;7.126;2022-09-23T14:45:56;22.60;31.20
9118;DHT22;4594;50.994;7.126;2022-09-23T14:50:54;22.50;31.60
9118;DHT22;4594;50.994;7.126;2022-09-23T14:53:40;22.50;31.70
9118;DHT22;4594;50.994;7.126;2022-09-23T15:04:12;22.50;31.70
9118;DHT22;4594;50.994;7.126;2022-09-23T15:07:03;22.50;31.90
9118;DHT22;4594;50.994;7.126;2022-09-23T15:09:38;22.40;31.90
9118;DHT22;4594;50.994;7.126;2022-09-23T15:12:14;22.40;32.00
9118;DHT22;4594;50.994;7.126;2022-09-23T15:14:50;22.40;32.00
9118;DHT22;4594;50.994;7.126;2022-09-23T15:19:51;22.30;32.20
9118;DHT22;4594;50.994;7.126;2022-09-23T15:22:22;22.30;32.20
9118;DHT22;4594;50.994;7.126;2022-09-23T15:24:51;22.30;32.30
9118;DHT22;4594;50.994;7.126;2022-09-23T15:27:29;22.20;32.30
9118;DHT22;4594;50.994;7.126;2022-09-23T15:30:15;22.10;32.20
9118;DHT22;4594;50.994;7.126;2022-09-23T15:32:43;22.10;32.30
9118;DHT22;4594;50.994;7.126;2022-09-23T15:35:20;22.00;32.20
9118;DHT22;4594;50.994;7.126;2022-09-23T15:37:52;22.00;32.20
9118;DHT22;4594;50.994;7.126;2022-09-23T15:42:59;21.90;32.50
9118;DHT22;4594;50.994;7.126;2022-09-23T15:45:35;21.80;32.30
9118;DHT22;4594;50.994;7.126;2022-09-23T15:48:08;21.70;32.30
9118;DHT22;4594;50.994;7.126;2022-09-23T15:50:38;21.70;32.40
9118;DHT22;4594;50.994;7.126;2022-09-23T15:53:13;21.60;32.40
9118;DHT22;4594;50.994;7.126;2022-09-23T15:55:40;21.60;32.40
9118;DHT22;4594;50.994;7.126;2022-09-23T15:58:06;21.50;32.30
9118;DHT22;4594;50.994;7.126;2022-09-23T16:00:32;21.50;32.50
9118;DHT22;4594;50.994;7.126;2022-09-23T16:03:01;21.40;32.40
9118;DHT22;4594;50.994;7.126;2022-09-23T16:05:34;21.40;32.40
9118;DHT22;4594;50.994;7.126;2022-09-23T16:08:05;21.30;32.40
9118;DHT22;4594;50.994;7.126;2022-09-23T16:10:34;21.20;32.40
9118;DHT22;4594;50.994;7.126;2022-09-23T16:13:02;21.20;32.40
9118;DHT22;4594;50.994;7.126;2022-09-23T16:15:30;21.10;32.30
9118;DHT22;4594;50.994;7.126;2022-09-23T16:17:57;21.00;32.30
9118;DHT22;4594;50.994;7.126;2022-09-23T16:20:26;21.00;32.40
9118;DHT22;4594;50.994;7.126;2022-09-23T16:25:45;20.90;32.60
9118;DHT22;4594;50.994;7.126;2022-09-23T16:28:10;20.80;32.40
9118;DHT22;4594;50.994;7.126;2022-09-23T16:30:36;20.70;32.40
9118;DHT22;4594;50.994;7.126;2022-09-23T16:33:02;20.70;32.50
9118;DHT22;4594;50.994;7.126;2022-09-23T16:35:30;20.60;32.50
9118;DHT22;4594;50.994;7.126;2022-09-23T16:37:58;20.50;32.60
9118;DHT22;4594;50.994;7.126;2022-09-23T16:40:23;20.40;32.50
9118;DHT22;4594;50.994;7.126;2022-09-23T16:42:51;20.40;32.60
9118;DHT22;4594;50.994;7.126;2022-09-23T16:45:19;20.30;32.70
9118;DHT22;4594;50.994;7.126;2022-09-23T16:47:48;20.30;32.80
9118;DHT22;4594;50.994;7.126;2022-09-23T16:50:18;20.20;32.80
9118;DHT22;4594;50.994;7.126;2022-09-23T16:52:46;20.10;32.80
9118;DHT22;4594;50.994;7.126;2022-09-23T16:55:14;20.00;32.80
9118;DHT22;4594;50.994;7.126;2022-09-23T16:57:40;20.00;32.90
9118;DHT22;4594;50.994;7.126;2022-09-23T17:00:10;19.90;32.80
9118;DHT22;4594;50.994;7.126;2022-09-23T17:02:57;19.80;32.90
9118;DHT22;4594;50.994;7.126;2022-09-23T17:05:41;19.80;32.90
9118;DHT22;4594;50.994;7.126;2022-09-23T17:08:09;19.70;32.80
9118;DHT22;4594;50.994;7.126;2022-09-23T17:10:39;19.60;32.90
9118;DHT22;4594;50.994;7.126;2022-09-23T17:13:05;19.60;32.90
9118;DHT22;4594;50.994;7.126;2022-09-23T17:15:35;19.50;32.90
9118;DHT22;4594;50.994;7.126;2022-09-23T17:18:02;19.40;33.00
9118;DHT22;4594;50.994;7.126;2022-09-23T17:20:29;19.30;32.90
9118;DHT22;4594;50.994;7.126;2022-09-23T17:22:55;19.30;33.10
9118;DHT22;4594;50.994;7.126;2022-09-23T17:25:21;19.20;33.00
9118;DHT22;4594;50.994;7.126;2022-09-23T17:27:47;19.10;33.10
9118;DHT22;4594;50.994;7.126;2022-09-23T17:30:14;19.10;33.20
9118;DHT22;4594;50.994;7.126;2022-09-23T17:32:40;19.00;33.20
9118;DHT22;4594;50.994;7.126;2022-09-23T17:35:07;19.00;33.20
9118;DHT22;4594;50.994;7.126;2022-09-23T17:37:35;18.90;33.20
9118;DHT22;4594;50.994;7.126;2022-09-23T17:40:02;18.80;33.20
9118;DHT22;4594;50.994;7.126;2022-09-23T17:42:29;18.80;33.30
9118;DHT22;4594;50.994;7.126;2022-09-23T17:44:54;18.80;33.40
9118;DHT22;4594;50.994;7.126;2022-09-23T17:47:21;18.60;33.30
9118;DHT22;4594;50.994;7.126;2022-09-23T17:49:47;18.70;33.40
9118;DHT22;4594;50.994;7.126;2022-09-23T17:52:14;18.60;33.50
9118;DHT22;4594;50.994;7.126;2022-09-23T17:54:40;18.50;33.40
9118;DHT22;4594;50.994;7.126;2022-09-23T17:57:06;18.50;33.50
9118;DHT22;4594;50.994;7.126;2022-09-23T17:59:32;18.40;33.50
9118;DHT22;4594;50.994;7.126;2022-09-23T18:01:58;18.40;33.50
9118;DHT22;4594;50.994;7.126;2022-09-23T18:04:24;18.30;33.50
9118;DHT22;4594;50.994;7.126;2022-09-23T18:06:49;18.20;33.50
9118;DHT22;4594;50.994;7.126;2022-09-23T18:09:15;18.30;33.60
9118;DHT22;4594;50.994;7.126;2022-09-23T18:11:43;18.10;33.60
9118;DHT22;4594;50.994;7.126;2022-09-23T18:14:19;18.10;33.70
9118;DHT22;4594;50.994;7.126;2022-09-23T18:16:47;18.10;33.90
9118;DHT22;4594;50.994;7.126;2022-09-23T18:19:17;18.00;33.70
9118;DHT22;4594;50.994;7.126;2022-09-23T18:21:46;18.00;33.80
9118;DHT22;4594;50.994;7.126;2022-09-23T18:24:15;17.90;33.80
9118;DHT22;4594;50.994;7.126;2022-09-23T18:26:42;17.90;33.80
9118;DHT22;4594;50.994;7.126;2022-09-23T18:29:08;17.90;33.80
9118;DHT22;4594;50.994;7.126;2022-09-23T18:31:36;17.80;33.80
9118;DHT22;4594;50.994;7.126;2022-09-23T18:34:08;17.80;33.90
9118;DHT22;4594;50.994;7.126;2022-09-23T18:36:36;17.70;34.00
9118;DHT22;4594;50.994;7.126;2022-09-23T18:39:02;17.70;33.90
9118;DHT22;4594;50.994;7.126;2022-09-23T18:41:29;17.60;33.90
9118;DHT22;4594;50.994;7.126;2022-09-23T18:43:55;17.60;33.90
9118;DHT22;4594;50.994;7.126;2022-09-23T18:46:23;17.50;33.90
9118;DHT22;4594;50.994;7.126;2022-09-23T18:48:51;17.50;34.00
9118;DHT22;4594;50.994;7.126;2022-09-23T18:51:53;17.50;34.10
9118;DHT22;4594;50.994;7.126;2022-09-23T18:54:21;17.40;34.40
9118;DHT22;4594;50.994;7.126;2022-09-23T18:56:48;17.40;34.10
9118;DHT22;4594;50.994;7.126;2022-09-23T18:59:18;17.40;34.20
9118;DHT22;4594;50.994;7.126;2022-09-23T19:01:46;17.30;34.30
9118;DHT22;4594;50.994;7.126;2022-09-23T19:04:16;17.30;34.30
9118;DHT22;4594;50.994;7.126;2022-09-23T19:06:43;17.30;34.30
9118;DHT22;4594;50.994;7.126;2022-09-23T19:09:10;17.30;34.30
9118;DHT22;4594;50.994;7.126;2022-09-23T19:11:36;17.30;34.40
9118;DHT22;4594;50.994;7.126;2022-09-23T19:14:05;17.20;34.40
9118;DHT22;4594;50.994;7.126;2022-09-23T19:16:33;17.20;34.40
9118;DHT22;4594;50.994;7.126;2022-09-23T19:19:01;17.10;34.40
9118;DHT22;4594;50.994;7.126;2022-09-23T19:21:28;17.10;34.40
9118;DHT22;4594;50.994;7.126;2022-09-23T19:23:56;17.10;34.40
9118;DHT22;4594;50.994;7.126;2022-09-23T19:26:29;17.00;34.50
9118;DHT22;4594;50.994;7.126;2022-09-23T19:28:59;17.00;34.50